CheckWX is a tool to help pilots better visualize weather data.  It is not intended as a substitute for an official pre-flight weather briefing.

12:01:23 UTC

CYKA METAR
Kamloops Airport
Kamloops, Canada
Current

3 hours ago

CYKA 250900Z 08007KT 40SM -RA OVC036 08/06 A3012 RMK SC8 SLP209
Observed
Mar-25 @ 09:00 UTC
Wind
  • 080° at 7 KTS
Visibility
40 SM
Flight Rules
VFR
Conditions
Light Rain
Cloud Levels
  • Overcast at 3,600' AGL
Temperature
C / 46°F
Dewpoint
C / 43°F
Humidity
87%
Altimeter
30.12" Hg
Pressure
1020.9 hPa
Previous

3 hours ago

CYKA 250855Z 08005KT 40SM -RA OVC036 08/06 A3012 RMK SC8 SLP210
Observed
Mar-25 @ 08:55 UTC
Wind
  • 080° at 5 KTS
Visibility
40 SM
Flight Rules
VFR
Conditions
Light Rain
Cloud Levels
  • Overcast at 3,600' AGL
Temperature
C / 46°F
Dewpoint
C / 43°F
Humidity
87%
Altimeter
30.12" Hg
Pressure
1021 hPa
Previous

4 hours ago

CYKA 250800Z 23004KT 40SM OVC047 09/05 A3012 RMK SC8 WND ESTD SLP207
Observed
Mar-25 @ 08:00 UTC
Wind
  • 230° at 4 KTS
Visibility
40 SM
Flight Rules
VFR
Cloud Levels
  • Overcast at 4,700' AGL
Temperature
C / 48°F
Dewpoint
C / 41°F
Humidity
76%
Altimeter
30.12" Hg
Pressure
1020.7 hPa